Time;durP1;ratioP1;P1;durP2;ratioP2;P2;SDS_P1;SDS_P2;PMS_P1;PMS_P2;Temp;Humidity;BMP_temperature;BMP_pressure;BME280_temperature;BME280_humidity;BME280_pressure;Samples;Min_cycle;Max_cycle;Signal;HPM_P1;HPM_P2
2022/04/18 00:00:17;;;;;;;9.63;7.17;;;;;;;7.08;69.70;102015.97;5027990;28;20320;-53
2022/04/18 00:02:44;;;;;;;7.73;6.83;;;;;;;7.00;69.87;102007.88;5029400;28;20236;-53
2022/04/18 00:05:10;;;;;;;8.53;7.40;;;;;;;6.99;70.36;102005.25;5029035;28;20788;-53
2022/04/18 00:07:36;;;;;;;9.63;7.87;;;;;;;6.94;70.72;102007.66;5028345;28;20548;-53
2022/04/18 00:10:04;;;;;;;10.07;7.33;;;;;;;6.89;70.90;102004.03;5028641;28;20240;-54
2022/04/18 00:12:31;;;;;;;7.47;6.47;;;;;;;6.87;71.11;102000.47;5029145;28;20233;-54
2022/04/18 00:14:59;;;;;;;8.90;8.00;;;;;;;6.88;71.90;101992.69;5028457;28;20233;-54
2022/04/18 00:17:25;;;;;;;9.17;7.30;;;;;;;6.86;71.91;102003.91;5028989;28;20291;-53
2022/04/18 00:19:51;;;;;;;11.10;7.50;;;;;;;6.87;73.04;102000.47;5027409;28;20260;-52
2022/04/18 00:22:18;;;;;;;8.07;7.20;;;;;;;6.83;73.51;101994.25;5028501;28;20260;-53
2022/04/18 00:24:45;;;;;;;7.90;7.03;;;;;;;6.82;72.70;101986.38;5028850;28;20330;-54
2022/04/18 00:27:11;;;;;;;9.40;7.87;;;;;;;6.80;72.24;101993.25;5028590;28;20236;-53
2022/04/18 00:29:37;;;;;;;9.30;7.57;;;;;;;6.78;72.91;101990.59;5027624;28;20233;-53
2022/04/18 00:32:06;;;;;;;8.93;7.97;;;;;;;6.74;74.25;101977.38;5029257;28;20233;-54
2022/04/18 00:34:33;;;;;;;10.07;8.53;;;;;;;6.72;75.53;101986.88;5027928;28;20659;-53
2022/04/18 00:36:59;;;;;;;11.67;8.10;;;;;;;6.63;75.94;101977.91;5016811;28;20688;-54
2022/04/18 00:39:26;;;;;;;10.50;8.30;;;;;;;6.50;75.08;101978.31;5014610;28;20578;-54
2022/04/18 00:41:52;;;;;;;10.57;8.67;;;;;;;6.44;75.20;101972.88;5028430;28;20233;-53
2022/04/18 00:44:18;;;;;;;9.00;7.47;;;;;;;6.40;75.21;101970.97;5027892;28;20228;-55
2022/04/18 00:46:45;;;;;;;8.13;7.33;;;;;;;6.28;75.71;101971.41;5027832;28;20742;-52
2022/04/18 00:49:12;;;;;;;10.27;7.43;;;;;;;6.20;76.14;101960.72;5025704;28;20314;-53
2022/04/18 00:51:39;;;;;;;8.07;7.13;;;;;;;6.20;75.83;101958.09;5027377;28;20322;-53
2022/04/18 00:54:05;;;;;;;17.27;8.60;;;;;;;6.20;75.64;101962.44;5027127;28;20236;-53
2022/04/18 00:56:32;;;;;;;10.00;8.70;;;;;;;6.18;75.49;101949.34;5027808;28;20256;-53
2022/04/18 00:58:59;;;;;;;9.07;8.17;;;;;;;6.25;75.37;101950.47;5025666;28;20291;-53
2022/04/18 01:01:26;;;;;;;10.77;8.77;;;;;;;6.29;75.33;101954.94;5026945;28;20662;-52
2022/04/18 01:03:52;;;;;;;14.23;8.37;;;;;;;6.27;75.54;101948.78;5027687;28;20610;-53
2022/04/18 01:06:20;;;;;;;11.57;8.73;;;;;;;6.25;75.82;101946.94;5027329;28;20283;-53
2022/04/18 01:08:48;;;;;;;9.90;8.90;;;;;;;6.25;76.56;101946.94;5026451;28;20247;-53
2022/04/18 01:11:14;;;;;;;12.87;9.37;;;;;;;6.19;77.26;101942.41;5025580;28;20786;-52
2022/04/18 01:13:42;;;;;;;12.50;8.73;;;;;;;6.16;77.80;101940.56;5026727;28;20294;-53
2022/04/18 01:16:08;;;;;;;10.37;9.20;;;;;;;6.11;78.69;101942.13;5021656;28;20641;-53
2022/04/18 01:18:35;;;;;;;12.97;10.57;;;;;;;6.05;78.89;101934.09;5018970;28;20236;-54
2022/04/18 01:21:03;;;;;;;10.80;9.70;;;;;;;5.98;78.63;101934.69;5027384;28;20228;-53
2022/04/18 01:23:29;;;;;;;10.00;9.00;;;;;;;5.99;77.66;101936.47;5027265;28;20229;-52
2022/04/18 01:31:24;;;;;;;9.20;8.20;;;;;;;5.91;80.82;101922.22;5027009;28;20275;-54
2022/04/18 01:33:50;;;;;;;9.40;8.47;;;;;;;5.81;80.74;101925.31;5027189;28;20228;-53
2022/04/18 01:36:18;;;;;;;10.13;8.53;;;;;;;5.76;81.39;101922.56;5026959;28;20321;-52
2022/04/18 01:38:44;;;;;;;9.60;8.60;;;;;;;5.70;81.63;101919.72;5026179;28;20237;-53
2022/04/18 01:41:10;;;;;;;10.80;8.17;;;;;;;5.67;81.63;101922.19;5025978;28;20232;-53
2022/04/18 01:43:37;;;;;;;9.83;8.73;;;;;;;5.64;81.94;101925.56;5026064;28;20313;-53
2022/04/18 01:46:03;;;;;;;8.83;7.93;;;;;;;5.63;82.09;101922.91;5025506;28;20722;-54
2022/04/18 01:48:30;;;;;;;9.07;7.70;;;;;;;5.60;82.29;101921.06;5025758;28;20243;-53
2022/04/18 01:50:56;;;;;;;9.20;8.03;;;;;;;5.61;82.73;101915.00;5026118;28;20236;-53
2022/04/18 01:53:25;;;;;;;12.47;8.30;;;;;;;5.58;82.23;101909.72;5025809;28;20619;-52
2022/04/18 01:55:52;;;;;;;9.37;7.17;;;;;;;5.57;81.91;101909.63;5026284;28;20245;-53
2022/04/18 01:58:18;;;;;;;9.00;8.07;;;;;;;5.57;81.62;101910.53;5025896;28;20237;-53
2022/04/18 02:00:45;;;;;;;8.80;7.77;;;;;;;5.56;81.36;101903.53;5025772;28;20237;-53
2022/04/18 02:03:11;;;;;;;8.63;7.70;;;;;;;5.56;81.94;101895.72;5025601;28;20241;-53
2022/04/18 02:05:39;;;;;;;9.53;7.53;;;;;;;5.53;82.27;101900.81;5026032;28;20240;-58
2022/04/18 02:08:06;;;;;;;8.97;6.73;;;;;;;5.53;82.40;101903.44;5025620;28;20541;-59
2022/04/18 02:10:34;;;;;;;8.03;7.23;;;;;;;5.52;82.96;101900.78;5023962;28;20237;-53
2022/04/18 02:13:00;;;;;;;11.60;7.97;;;;;;;5.48;83.06;101899.78;5006266;28;20320;-53
2022/04/18 02:15:27;;;;;;;11.10;8.60;;;;;;;5.43;83.02;101890.88;5021767;28;20294;-53
2022/04/18 02:17:53;;;;;;;9.47;7.57;;;;;;;5.42;84.35;101890.00;5026597;28;20240;-53
2022/04/18 02:20:20;;;;;;;11.33;7.73;;;;;;;5.40;85.72;101890.75;5025209;28;20259;-53
2022/04/18 02:22:46;;;;;;;11.50;8.43;;;;;;;5.29;85.95;101887.72;5024801;28;20271;-53
2022/04/18 02:25:13;;;;;;;10.30;7.90;;;;;;;5.24;85.66;101884.97;5025497;28;20241;-54
2022/04/18 02:27:40;;;;;;;7.90;7.07;;;;;;;5.24;84.86;101881.47;5024784;28;20714;-53
2022/04/18 02:30:09;;;;;;;9.67;6.93;;;;;;;5.26;84.83;101887.59;5009209;28;20267;-53
2022/04/18 02:32:48;;;;;;;8.33;7.27;;;;;;;5.21;84.91;101889.16;5025763;28;20232;-53
2022/04/18 02:35:14;;;;;;;9.77;7.13;;;;;;;5.19;85.43;101891.69;5025925;28;20240;-54
2022/04/18 02:37:42;;;;;;;9.07;7.20;;;;;;;5.14;86.57;101888.03;5025461;28;20236;-53
2022/04/18 02:40:10;;;;;;;9.77;7.43;;;;;;;5.11;87.34;101887.03;5024462;28;20232;-54
2022/04/18 02:42:36;;;;;;;8.17;7.37;;;;;;;5.07;88.55;101885.13;5025947;28;20656;-52
2022/04/18 02:45:05;;;;;;;9.33;7.90;;;;;;;5.11;88.43;101882.69;5025405;28;20290;-54
2022/04/18 02:47:31;;;;;;;8.90;8.00;;;;;;;5.10;88.75;101886.13;5026440;28;20717;-53
2022/04/18 02:49:58;;;;;;;8.57;7.73;;;;;;;5.07;88.62;101880.81;5024866;28;20793;-52
2022/04/18 02:52:24;;;;;;;9.13;7.50;;;;;;;4.92;88.56;101878.47;5026304;28;20260;-53
2022/04/18 02:54:50;;;;;;;8.07;7.30;;;;;;;4.90;88.28;101877.53;5026376;28;20259;-54
2022/04/18 02:57:17;;;;;;;8.33;7.43;;;;;;;4.86;88.67;101873.03;5025604;28;20286;-53
2022/04/18 02:59:43;;;;;;;8.13;7.33;;;;;;;4.86;88.87;101870.41;5024853;28;20232;-54
2022/04/18 03:02:11;;;;;;;10.37;7.33;;;;;;;4.71;89.65;101875.91;5024804;28;20718;-54
2022/04/18 03:04:37;;;;;;;9.23;8.23;;;;;;;4.59;89.53;101869.28;5025699;28;20235;-54
2022/04/18 03:07:04;;;;;;;6.83;5.87;;;;;;;4.55;89.79;101865.66;5024737;28;20601;-53
2022/04/18 03:09:31;;;;;;;7.97;7.17;;;;;;;4.60;88.76;101871.97;5022472;28;20282;-52
2022/04/18 03:11:57;;;;;;;7.23;6.47;;;;;;;4.53;88.37;101869.94;5025550;28;20293;-54
2022/04/18 03:14:24;;;;;;;8.43;6.73;;;;;;;4.49;88.36;101865.41;5023422;28;20252;-52
2022/04/18 03:16:51;;;;;;;7.33;6.37;;;;;;;4.46;89.06;101860.09;5023973;28;20245;-52
2022/04/18 03:19:18;;;;;;;7.60;6.67;;;;;;;4.46;88.88;101862.72;5024486;28;20286;-53
2022/04/18 03:21:45;;;;;;;8.17;7.17;;;;;;;4.39;88.93;101850.25;5023032;28;20290;-54
2022/04/18 03:24:11;;;;;;;8.00;7.20;;;;;;;4.38;90.13;101849.34;5005408;28;20237;-53
2022/04/18 03:26:37;;;;;;;9.73;6.53;;;;;;;4.36;89.99;101850.13;5017674;28;20232;-53
2022/04/18 03:29:04;;;;;;;8.57;7.30;;;;;;;4.36;90.39;101847.53;5024350;28;20287;-54
2022/04/18 03:31:30;;;;;;;11.23;7.90;;;;;;;4.35;90.10;101849.22;5023970;28;20236;-53
2022/04/18 03:33:56;;;;;;;9.00;7.10;;;;;;;4.31;90.30;101843.00;5024664;28;20318;-54
2022/04/18 03:41:52;;;;;;;6.77;6.17;;;;;;;4.23;90.83;101848.72;5025387;28;20731;-52
2022/04/18 03:44:21;;;;;;;8.07;7.10;;;;;;;4.24;91.16;101845.28;5025100;28;20256;-52
2022/04/18 03:46:48;;;;;;;8.67;7.83;;;;;;;4.26;90.83;101844.53;5024111;28;20244;-53
2022/04/18 03:49:14;;;;;;;7.90;7.10;;;;;;;4.24;90.51;101835.78;5023831;28;20244;-53
2022/04/18 03:51:42;;;;;;;8.60;7.07;;;;;;;4.22;90.70;101837.44;5023420;28;20244;-53
2022/04/18 03:54:08;;;;;;;8.07;7.17;;;;;;;4.15;91.05;101839.72;5024608;28;20232;-53
2022/04/18 03:56:35;;;;;;;10.17;7.23;;;;;;;4.04;91.60;101831.47;5025213;28;20236;-54
2022/04/18 03:59:01;;;;;;;8.53;7.23;;;;;;;4.03;92.23;101833.16;5024000;28;20255;-53
2022/04/18 04:01:28;;;;;;;7.87;6.83;;;;;;;4.02;92.28;101835.69;5023579;28;20225;-52
2022/04/18 04:03:54;;;;;;;9.40;7.03;;;;;;;4.00;92.47;101834.72;5019784;28;20257;-54
2022/04/18 04:06:20;;;;;;;10.83;8.43;;;;;;;4.07;92.18;101837.69;5024523;28;20427;-53
2022/04/18 04:08:48;;;;;;;9.43;7.87;;;;;;;4.09;91.92;101835.13;5013609;28;20303;-52
2022/04/18 04:11:14;;;;;;;9.13;7.73;;;;;;;4.09;91.97;101837.72;5004867;28;20579;-53
2022/04/18 04:13:41;;;;;;;9.23;7.07;;;;;;;4.08;91.16;101835.97;5022608;28;20290;-54
2022/04/18 04:16:07;;;;;;;9.17;7.00;;;;;;;4.10;91.46;101846.41;5023692;28;20318;-53
2022/04/18 04:18:33;;;;;;;12.27;8.13;;;;;;;4.00;91.83;101839.91;5023579;28;20236;-53
2022/04/18 04:21:00;;;;;;;9.27;7.63;;;;;;;4.00;92.39;101847.72;5024976;28;20291;-52
2022/04/18 04:23:26;;;;;;;8.67;7.50;;;;;;;3.97;92.32;101840.69;5024831;28;20232;-54
2022/04/18 04:25:54;;;;;;;10.10;8.63;;;;;;;3.97;92.94;101847.59;5024102;28;20750;-56
2022/04/18 04:28:20;;;;;;;8.13;7.33;;;;;;;3.99;92.75;101848.53;5024211;28;20328;-53
2022/04/18 04:30:47;;;;;;;8.00;7.10;;;;;;;3.97;92.78;101829.44;5023094;28;20626;-52
2022/04/18 04:33:16;;;;;;;8.67;7.77;;;;;;;4.00;92.86;101837.31;5024552;28;20228;-53
2022/04/18 04:35:42;;;;;;;8.07;7.27;;;;;;;4.01;92.79;101827.00;5024150;28;20240;-53
2022/04/18 04:38:08;;;;;;;10.00;8.40;;;;;;;3.99;92.40;101827.75;5026820;28;20248;-53
2022/04/18 04:40:35;;;;;;;9.23;7.97;;;;;;;3.97;92.65;101824.22;5028304;28;20243;-53
2022/04/18 04:43:03;;;;;;;7.87;6.47;;;;;;;3.99;92.35;101818.25;5037955;28;20645;-52
2022/04/18 04:45:32;;;;;;;9.73;7.97;;;;;;;4.04;92.04;101815.88;5037814;28;20303;-52
2022/04/18 04:47:59;;;;;;;9.03;7.43;;;;;;;4.02;92.48;101822.69;5041100;28;20324;-54
2022/04/18 04:50:25;;;;;;;11.17;7.67;;;;;;;3.99;92.51;101814.78;5038697;28;20228;-55
2022/04/18 04:52:51;;;;;;;8.27;7.47;;;;;;;4.07;91.48;101815.97;5033340;28;20549;-54
2022/04/18 04:55:18;;;;;;;9.93;8.13;;;;;;;4.10;91.72;101820.41;5036122;28;20303;-54
2022/04/18 04:57:45;;;;;;;8.53;7.63;;;;;;;4.09;91.39;101811.75;5027550;28;20240;-53
2022/04/18 05:00:14;;;;;;;8.40;7.40;;;;;;;4.14;90.73;101818.03;5027605;28;20251;-54
2022/04/18 05:02:40;;;;;;;10.27;8.30;;;;;;;4.13;90.78;101815.38;5028204;28;20631;-54
2022/04/18 05:05:08;;;;;;;10.33;8.33;;;;;;;4.08;91.18;101817.78;5027422;28;20233;-53
2022/04/18 05:07:34;;;;;;;9.47;8.17;;;;;;;4.06;90.66;101815.09;5025867;28;20224;-54
2022/04/18 05:10:01;;;;;;;10.67;8.13;;;;;;;4.09;91.17;101824.75;5027204;28;20225;-53
2022/04/18 05:12:28;;;;;;;9.37;7.80;;;;;;;4.11;90.65;101822.19;5030317;28;20240;-54
2022/04/18 05:14:55;;;;;;;12.67;8.23;;;;;;;4.25;89.10;101815.91;5032373;28;20299;-53
2022/04/18 05:17:22;;;;;;;9.90;7.80;;;;;;;4.28;88.67;101819.50;5031055;28;20229;-53
2022/04/18 05:19:49;;;;;;;13.33;8.33;;;;;;;4.31;87.94;101817.00;5011510;28;20790;-53
2022/04/18 05:22:15;;;;;;;10.27;7.77;;;;;;;4.31;88.34;101821.31;5009185;28;20257;-53
2022/04/18 05:24:41;;;;;;;10.43;7.93;;;;;;;4.33;88.07;101813.63;5009027;28;20237;-54
2022/04/18 05:27:08;;;;;;;13.47;7.93;;;;;;;4.30;88.32;101815.25;5006966;28;20240;-54
2022/04/18 05:29:34;;;;;;;11.97;8.67;;;;;;;4.38;88.29;101814.69;5007477;28;20244;-53
2022/04/18 05:32:00;;;;;;;9.63;8.63;;;;;;;4.50;87.54;101810.00;5007029;28;20738;-53
2022/04/18 05:34:28;;;;;;;9.07;8.17;;;;;;;4.52;86.97;101816.13;5009212;28;21440;-54
2022/04/18 05:36:54;;;;;;;12.33;7.67;;;;;;;4.59;86.86;101819.88;5012943;28;20237;-52
2022/04/18 05:39:21;;;;;;;9.03;7.93;;;;;;;4.52;87.55;101818.72;5013806;28;20526;-53
2022/04/18 05:41:47;;;;;;;10.47;8.17;;;;;;;4.52;87.93;101811.81;5012250;28;20690;-52
2022/04/18 05:44:14;;;;;;;12.47;9.00;;;;;;;4.61;87.74;101824.31;5010918;28;20237;-54
2022/04/18 05:46:40;;;;;;;10.97;8.67;;;;;;;4.63;87.67;101820.03;5013582;28;20716;-57
2022/04/18 05:49:06;;;;;;;14.03;9.67;;;;;;;4.63;88.43;101819.16;5014646;28;20233;-53
2022/04/18 05:51:36;;;;;;;9.70;8.47;;;;;;;4.70;88.25;101822.09;5032666;28;20657;-52
2022/04/18 05:54:03;;;;;;;13.00;9.30;;;;;;;4.79;88.35;101812.03;5027575;28;20296;-55
2022/04/18 05:56:29;;;;;;;11.97;9.10;;;;;;;4.88;87.72;101821.03;5026106;28;20291;-53
2022/04/18 05:58:56;;;;;;;12.50;10.00;;;;;;;5.00;86.96;101817.22;5026212;28;20305;-53
2022/04/18 06:01:22;;;;;;;12.70;9.97;;;;;;;5.07;86.69;101813.13;5012795;28;20233;-54
2022/04/18 06:03:48;;;;;;;12.87;9.27;;;;;;;5.18;86.52;101817.03;5017787;28;20232;-54
2022/04/18 06:06:15;;;;;;;9.83;8.87;;;;;;;5.21;86.23;101806.72;5033413;28;20268;-54
2022/04/18 06:08:43;;;;;;;13.90;9.87;;;;;;;5.21;86.36;101817.16;5034212;28;20343;-53
2022/04/18 06:11:09;;;;;;;14.07;9.20;;;;;;;5.26;86.44;101820.84;5034006;28;20315;-53
2022/04/18 06:13:35;;;;;;;11.77;9.13;;;;;;;5.33;86.77;101815.84;5033885;28;20311;-54
2022/04/18 06:16:02;;;;;;;14.37;9.70;;;;;;;5.42;87.11;101817.06;5027924;28;20634;-53
2022/04/18 06:18:28;;;;;;;11.50;9.17;;;;;;;5.52;87.17;101813.09;5028502;28;20264;-53
2022/04/18 06:20:54;;;;;;;11.03;9.37;;;;;;;5.72;87.01;101817.31;5025464;28;20236;-54
2022/04/18 06:23:21;;;;;;;16.07;10.50;;;;;;;5.89;84.39;101819.63;5026383;28;20282;-54
2022/04/18 06:25:49;;;;;;;14.20;11.13;;;;;;;6.06;83.52;101815.94;5026170;28;20674;-54
2022/04/18 06:28:15;;;;;;;13.37;10.27;;;;;;;6.14;83.46;101817.09;5026472;28;20236;-54
2022/04/18 06:30:42;;;;;;;17.23;12.33;;;;;;;6.19;82.34;101819.84;5026607;28;20656;-54
2022/04/18 06:33:10;;;;;;;12.00;8.73;;;;;;;6.90;80.89;101810.00;5026308;28;20573;-55
2022/04/18 06:35:37;;;;;;;17.13;11.27;;;;;;;6.85;76.88;101819.44;5026553;28;20293;-53
2022/04/18 06:38:03;;;;;;;15.77;10.10;;;;;;;6.96;77.82;101814.53;5027284;28;20232;-54
2022/04/18 06:40:29;;;;;;;16.67;10.30;;;;;;;6.71;76.65;101815.50;5027197;28;20236;-53
2022/04/18 06:42:57;;;;;;;15.73;10.47;;;;;;;6.85;76.52;101814.22;5029319;28;20287;-53
2022/04/18 06:45:24;;;;;;;13.53;10.53;;;;;;;6.88;76.49;101816.88;5026256;28;20298;-54
2022/04/18 06:47:50;;;;;;;13.40;9.47;;;;;;;6.89;76.56;101811.72;5025837;28;20243;-54
2022/04/18 06:50:17;;;;;;;11.67;8.80;;;;;;;6.86;77.22;101809.00;5025510;28;20259;-53
2022/04/18 06:52:44;;;;;;;14.03;9.87;;;;;;;6.82;76.67;101803.66;5025528;28;20661;-53
2022/04/18 06:55:11;;;;;;;16.13;11.47;;;;;;;6.87;76.29;101802.94;5025645;28;20616;-54
2022/04/18 06:57:36;;;;;;;11.97;9.17;;;;;;;6.84;75.44;101804.56;5026547;28;20244;-53
2022/04/18 07:00:05;;;;;;;12.93;8.40;;;;;;;6.98;75.77;101811.13;5024841;28;20240;-53
2022/04/18 07:02:32;;;;;;;11.50;8.63;;;;;;;7.13;75.39;101811.59;5026348;28;20637;-53
2022/04/18 07:04:58;;;;;;;13.57;10.73;;;;;;;7.43;73.92;101802.00;5026028;28;21879;-54
2022/04/18 07:07:25;;;;;;;11.27;9.57;;;;;;;7.54;74.16;101808.41;5026567;28;20237;-54
2022/04/18 07:09:51;;;;;;;11.33;8.03;;;;;;;7.93;75.21;101811.25;5024686;28;20711;-54
2022/04/18 07:12:20;;;;;;;10.60;8.20;;;;;;;8.18;73.68;101810.19;5025510;28;20780;-53
2022/04/18 07:14:47;;;;;;;11.77;8.30;;;;;;;8.40;72.78;101795.97;5024586;28;20584;-54
2022/04/18 07:17:14;;;;;;;14.43;8.57;;;;;;;8.43;70.97;101798.66;5021113;28;20240;-53
2022/04/18 07:19:41;;;;;;;10.10;7.67;;;;;;;8.35;69.81;101801.06;5024664;28;20263;-53
2022/04/18 07:22:07;;;;;;;10.27;7.53;;;;;;;8.72;70.33;101796.75;5025424;28;20233;-53
2022/04/18 07:24:34;;;;;;;9.20;6.43;;;;;;;8.86;69.52;101799.69;5025581;28;20423;-52
2022/04/18 07:27:01;;;;;;;8.57;6.73;;;;;;;8.84;67.81;101798.75;5025059;28;20256;-53
2022/04/18 07:29:28;;;;;;;9.37;7.17;;;;;;;8.82;65.14;101792.59;5024423;28;20247;-53
2022/04/18 07:31:55;;;;;;;7.77;6.97;;;;;;;8.96;64.60;101790.31;5025077;28;20264;-53
2022/04/18 07:34:23;;;;;;;14.10;7.27;;;;;;;8.99;65.36;101783.41;5025227;28;20228;-54
2022/04/18 07:36:49;;;;;;;9.23;7.00;;;;;;;9.11;66.89;101788.00;5025311;28;20248;-53
2022/04/18 07:39:16;;;;;;;10.13;6.30;;;;;;;9.19;66.81;101788.19;5023609;28;20302;-53
2022/04/18 07:41:42;;;;;;;6.40;5.40;;;;;;;9.30;64.62;101792.81;5022279;28;20252;-53
2022/04/18 07:44:09;;;;;;;9.00;6.73;;;;;;;9.49;64.62;101791.44;5024702;28;20310;-53
2022/04/18 07:46:36;;;;;;;7.40;6.53;;;;;;;9.48;62.50;101788.81;5024894;28;20248;-53
2022/04/18 07:49:02;;;;;;;7.33;5.63;;;;;;;9.64;62.36;101785.63;5022863;28;20235;-54
2022/04/18 07:51:34;;;;;;;8.60;6.47;;;;;;;9.75;59.68;101789.34;5017178;28;20768;-55
2022/04/18 07:54:02;;;;;;;7.53;5.37;;;;;;;9.87;60.16;101791.31;5004710;28;20233;-53
2022/04/18 07:56:29;;;;;;;7.77;5.30;;;;;;;9.96;60.42;101798.47;5019602;28;20288;-53
2022/04/18 07:58:57;;;;;;;6.13;5.37;;;;;;;9.93;58.45;101795.78;5023819;28;20236;-53
2022/04/18 08:01:24;;;;;;;9.40;5.67;;;;;;;10.16;58.17;101794.47;5024357;28;20228;-54
2022/04/18 08:03:50;;;;;;;6.87;5.63;;;;;;;10.30;57.68;101799.13;5023914;28;20239;-53
2022/04/18 08:06:17;;;;;;;6.07;5.47;;;;;;;10.46;57.77;101795.91;5024038;28;20240;-54
2022/04/18 08:08:45;;;;;;;7.00;5.63;;;;;;;10.61;56.92;101792.63;5023881;28;20248;-54
2022/04/18 08:11:14;;;;;;;5.93;4.70;;;;;;;10.83;57.75;101775.44;5025215;28;20245;-54
2022/04/18 08:13:41;;;;;;;9.13;5.17;;;;;;;10.97;56.35;101782.66;5025089;28;20244;-53
2022/04/18 08:16:07;;;;;;;6.70;5.30;;;;;;;11.09;56.09;101778.44;5025653;28;20346;-54
2022/04/18 08:18:36;;;;;;;9.88;7.53;;;;;;;11.38;53.65;101777.09;5023814;28;20286;-56
2022/04/18 08:21:03;;;;;;;12.73;7.97;;;;;;;11.54;52.45;101777.25;5028007;28;20259;-54
2022/04/18 08:23:29;;;;;;;12.70;9.83;;;;;;;11.68;52.47;101775.66;5028813;28;20608;-53
2022/04/18 08:25:57;;;;;;;8.07;6.53;;;;;;;11.81;51.80;101772.31;5028356;28;20698;-53
2022/04/18 08:28:23;;;;;;;8.05;6.18;;;;;;;11.79;52.42;101774.03;5027670;28;20256;-53
2022/04/18 08:30:50;;;;;;;8.45;5.57;;;;;;;11.91;51.34;101771.56;5028642;28;20241;-53
2022/04/18 08:33:16;;;;;;;8.73;6.25;;;;;;;11.87;51.49;101777.69;5028491;28;20237;-54
2022/04/18 08:35:42;;;;;;;6.07;5.05;;;;;;;11.69;52.46;101772.19;5025778;28;20260;-53
2022/04/18 08:38:09;;;;;;;7.13;5.38;;;;;;;11.73;51.42;101763.47;5025625;28;20239;-53
2022/04/18 08:40:37;;;;;;;7.03;5.25;;;;;;;12.05;52.05;101770.84;5045254;28;20773;-54
2022/04/18 08:43:05;;;;;;;7.78;5.25;;;;;;;12.20;49.88;101764.81;5012646;28;20225;-54
2022/04/18 08:45:32;;;;;;;8.20;5.40;;;;;;;12.51;48.40;101753.66;5027997;28;20316;-54
2022/04/18 08:53:28;;;;;;;4.95;4.22;;;;;;;12.47;48.19;101758.91;5028624;28;20302;-55
2022/04/18 08:55:55;;;;;;;7.60;4.82;;;;;;;12.61;47.83;101758.13;5026169;28;20271;-54
2022/04/18 08:58:24;;;;;;;5.47;4.75;;;;;;;12.58;47.79;101757.25;5027415;28;20681;-53
2022/04/18 09:00:50;;;;;;;5.47;4.97;;;;;;;12.76;46.48;101752.09;5027987;28;20232;-53
2022/04/18 09:03:17;;;;;;;5.25;4.70;;;;;;;12.92;45.80;101746.88;5028493;28;20335;-53
2022/04/18 09:05:44;;;;;;;7.25;5.28;;;;;;;13.18;45.84;101739.13;5028296;28;20326;-54
2022/04/18 09:08:11;;;;;;;5.13;4.63;;;;;;;13.28;44.72;101736.56;5028891;28;20232;-53
2022/04/18 09:10:38;;;;;;;5.55;4.35;;;;;;;13.19;44.94;101736.47;5028191;28;20310;-53
2022/04/18 09:13:06;;;;;;;5.10;3.78;;;;;;;13.18;46.25;101729.47;5028195;28;20232;-53
2022/04/18 09:15:38;;;;;;;4.45;3.92;;;;;;;13.29;45.37;101727.78;5026438;28;20260;-54
2022/04/18 09:18:13;;;;;;;3.15;2.88;;;;;;;13.50;44.98;101731.38;5011682;28;20232;-54
2022/04/18 09:20:43;;;;;;;4.10;3.53;;;;;;;13.71;44.88;101731.41;5008108;28;20241;-53
2022/04/18 09:23:22;;;;;;;6.07;3.67;;;;;;;13.75;42.92;101725.25;5020349;28;20608;-53
2022/04/18 09:25:52;;;;;;;5.22;3.72;;;;;;;13.83;43.32;101728.81;5027646;28;20241;-53
2022/04/18 09:28:23;;;;;;;4.53;3.40;;;;;;;13.91;43.21;101718.25;5027130;28;20228;-55
2022/04/18 09:31:00;;;;;;;4.78;3.55;;;;;;;14.02;41.82;101715.63;5026436;28;20654;-54
2022/04/18 09:33:32;;;;;;;2.97;2.67;;;;;;;13.99;41.35;101705.06;5027530;28;20282;-54
2022/04/18 09:36:06;;;;;;;5.75;2.45;;;;;;;13.76;43.54;101695.38;5027611;28;20251;-54
2022/04/18 09:38:37;;;;;;;3.13;2.58;;;;;;;14.00;42.89;101701.53;5026020;28;20243;-53
2022/04/18 09:41:03;;;;;;;2.83;2.45;;;;;;;14.40;41.21;101696.25;5027036;28;20258;-52
2022/04/18 09:43:37;;;;;;;3.67;3.10;;;;;;;14.61;40.87;101690.97;5023836;28;20233;-53
2022/04/18 09:46:05;;;;;;;5.13;2.65;;;;;;;14.97;38.75;101687.31;5022170;28;20243;-53
2022/04/18 09:48:33;;;;;;;4.50;2.88;;;;;;;14.97;38.61;101686.44;5009149;28;20658;-54
2022/04/18 09:51:00;;;;;;;3.85;2.60;;;;;;;15.13;36.87;101688.13;5007315;28;20229;-54
2022/04/18 09:53:27;;;;;;;5.40;3.17;;;;;;;14.74;37.88;101676.84;5006449;28;20233;-53
2022/04/18 09:55:54;;;;;;;2.30;2.10;;;;;;;14.70;40.03;101680.34;5006907;28;20234;-54
2022/04/18 09:58:21;;;;;;;3.33;2.60;;;;;;;14.88;38.86;101678.53;5006211;28;20285;-53
2022/04/18 10:00:48;;;;;;;3.28;2.80;;;;;;;14.92;38.89;101672.38;5006865;28;20249;-54
2022/04/18 10:03:16;;;;;;;2.67;2.40;;;;;;;14.89;39.81;101675.91;5006431;28;20726;-53
2022/04/18 10:05:42;;;;;;;4.18;2.60;;;;;;;14.54;39.74;101671.59;5023192;28;20298;-54
2022/04/18 10:08:09;;;;;;;4.63;2.80;;;;;;;14.27;40.01;101675.13;5026505;28;20236;-54
2022/04/18 10:10:37;;;;;;;2.63;2.20;;;;;;;14.42;40.44;101662.75;5025723;28;20678;-54
2022/04/18 10:13:03;;;;;;;3.75;2.75;;;;;;;14.30;39.72;101664.53;5026261;28;20252;-54
2022/04/18 10:15:33;;;;;;;4.30;2.40;;;;;;;14.33;42.05;101659.25;5025228;28;20261;-53
2022/04/18 10:18:02;;;;;;;4.68;2.65;;;;;;;14.32;41.40;101662.78;5026261;28;20774;-53
2022/04/18 10:20:41;;;;;;;2.58;2.38;;;;;;;14.41;41.00;101658.38;5024885;28;20298;-54
2022/04/18 10:23:20;;;;;;;2.70;2.30;;;;;;;14.67;38.47;101653.94;5026055;28;20278;-53
2022/04/18 10:26:27;;;;;;;3.13;2.50;;;;;;;14.68;39.06;101644.25;5026106;28;20729;-54
2022/04/18 10:28:55;;;;;;;3.30;2.58;;;;;;;14.75;40.26;101649.50;4962778;28;20783;-53
2022/04/18 10:31:24;;;;;;;5.20;2.55;;;;;;;14.48;39.36;101654.81;5017095;28;20237;-53
2022/04/18 10:33:51;;;;;;;3.88;2.50;;;;;;;14.49;40.10;101648.66;5025064;28;20240;-53
2022/04/18 10:36:27;;;;;;;2.33;2.13;;;;;;;14.24;39.58;101653.97;5024458;28;20232;-53
2022/04/18 10:38:55;;;;;;;3.55;2.40;;;;;;;14.47;40.09;101648.66;5023740;28;20378;-52
2022/04/18 10:41:35;;;;;;;4.45;1.98;;;;;;;15.04;36.98;101637.91;5024802;28;20377;-53
2022/04/18 10:44:05;;;;;;;1.40;1.30;;;;;;;15.23;36.38;101642.25;5018037;28;20240;-54
2022/04/18 10:46:31;;;;;;;2.80;2.00;;;;;;;15.42;36.24;101629.75;5025825;28;20240;-54
2022/04/18 10:48:58;;;;;;;2.03;1.60;;;;;;;15.40;36.84;101634.16;5024862;28;20638;-53
2022/04/18 10:51:30;;;;;;;1.63;1.52;;;;;;;15.65;36.31;101639.28;5025977;28;20232;-53
2022/04/18 10:54:07;;;;;;;1.95;1.77;;;;;;;15.71;36.80;101640.16;5025476;28;20294;-54
2022/04/18 10:56:48;;;;;;;2.88;2.30;;;;;;;15.91;37.61;101628.53;5025772;28;20706;-54
2022/04/18 10:59:15;;;;;;;3.05;2.40;;;;;;;16.10;37.33;101630.13;5021379;28;20228;-54
2022/04/18 11:01:42;;;;;;;2.35;1.98;;;;;;;16.32;35.08;101629.91;5026230;28;20267;-57
2022/04/18 11:04:09;;;;;;;1.95;1.75;;;;;;;16.23;34.19;101626.47;5026757;28;20717;-55
2022/04/18 11:06:47;;;;;;;2.10;1.90;;;;;;;15.86;35.81;101625.03;5026071;28;20768;-54
2022/04/18 11:09:16;;;;;;;3.47;2.08;;;;;;;15.00;37.35;101620.31;5025160;28;20740;-54
2022/04/18 11:11:46;;;;;;;2.33;2.13;;;;;;;15.02;38.81;101621.16;5025691;28;20287;-54
2022/04/18 11:14:20;;;;;;;2.05;1.90;;;;;;;14.92;37.43;101612.41;5024392;28;20228;-53
2022/04/18 11:16:55;;;;;;;4.80;2.50;;;;;;;15.20;37.44;101610.50;5024847;28;20241;-55
2022/04/18 11:19:24;;;;;;;2.45;1.65;;;;;;;15.16;38.45;101610.50;5017447;28;20226;-53
2022/04/18 11:22:13;;;;;;;2.08;1.75;;;;;;;15.69;36.66;101598.72;5005833;28;20240;-53
2022/04/18 11:24:40;;;;;;;3.22;1.80;;;;;;;16.02;35.93;101605.47;5025814;28;20264;-53
2022/04/18 11:27:09;;;;;;;1.50;1.35;;;;;;;15.64;36.67;101600.47;5025541;28;20670;-53
2022/04/18 11:29:35;;;;;;;1.95;1.83;;;;;;;15.28;38.62;101587.50;5024958;28;20330;-54
2022/04/18 11:32:02;;;;;;;1.77;1.58;;;;;;;15.63;38.79;101591.66;5025926;28;20510;-53
2022/04/18 11:34:30;;;;;;;2.00;1.50;;;;;;;15.52;37.81;101588.22;5025274;28;20248;-54
2022/04/18 11:36:57;;;;;;;4.28;2.03;;;;;;;15.26;38.38;101586.63;5025395;28;20235;-53
2022/04/18 11:39:25;;;;;;;1.90;1.45;;;;;;;15.60;37.78;101585.53;5025086;28;20241;-53
2022/04/18 11:42:02;;;;;;;2.80;1.80;;;;;;;15.83;37.69;101583.59;5026008;28;20295;-53
2022/04/18 11:44:38;;;;;;;2.47;2.05;;;;;;;15.95;35.26;101578.16;5025401;28;20585;-53